sensor_id;sensor_type;location;lat;lon;timestamp;P1;durP1;ratioP1;P2;durP2;ratioP2
20954;SDS011;10636;19.390;-99.256;2023-02-11T00:01:21;14.30;;;12.90;;
20954;SDS011;10636;19.390;-99.256;2023-02-11T00:03:52;13.93;;;12.48;;
20954;SDS011;10636;19.390;-99.256;2023-02-11T00:06:21;14.90;;;12.32;;
20954;SDS011;10636;19.390;-99.256;2023-02-11T00:08:51;12.98;;;11.27;;
20954;SDS011;10636;19.390;-99.256;2023-02-11T00:11:20;15.32;;;12.13;;
20954;SDS011;10636;19.390;-99.256;2023-02-11T00:13:50;13.30;;;12.00;;
20954;SDS011;10636;19.390;-99.256;2023-02-11T00:16:20;12.10;;;10.95;;
20954;SDS011;10636;19.390;-99.256;2023-02-11T00:18:49;12.05;;;10.85;;
20954;SDS011;10636;19.390;-99.256;2023-02-11T00:21:19;12.65;;;11.38;;
20954;SDS011;10636;19.390;-99.256;2023-02-11T00:23:51;12.20;;;10.93;;
20954;SDS011;10636;19.390;-99.256;2023-02-11T00:26:22;12.85;;;11.18;;
20954;SDS011;10636;19.390;-99.256;2023-02-11T00:28:52;11.98;;;10.75;;
20954;SDS011;10636;19.390;-99.256;2023-02-11T00:31:23;12.45;;;10.32;;
20954;SDS011;10636;19.390;-99.256;2023-02-11T00:33:53;11.40;;;9.73;;
20954;SDS011;10636;19.390;-99.256;2023-02-11T00:36:22;13.00;;;10.55;;
20954;SDS011;10636;19.390;-99.256;2023-02-11T00:38:51;14.93;;;10.77;;
20954;SDS011;10636;19.390;-99.256;2023-02-11T00:41:22;12.38;;;11.07;;
20954;SDS011;10636;19.390;-99.256;2023-02-11T00:43:51;12.18;;;10.88;;
20954;SDS011;10636;19.390;-99.256;2023-02-11T00:46:19;10.82;;;9.68;;
20954;SDS011;10636;19.390;-99.256;2023-02-11T00:48:50;12.10;;;10.82;;
20954;SDS011;10636;19.390;-99.256;2023-02-11T00:51:22;11.73;;;10.73;;
20954;SDS011;10636;19.390;-99.256;2023-02-11T00:53:50;11.25;;;10.07;;
20954;SDS011;10636;19.390;-99.256;2023-02-11T00:56:19;12.43;;;9.63;;
20954;SDS011;10636;19.390;-99.256;2023-02-11T00:58:48;10.60;;;9.55;;
20954;SDS011;10636;19.390;-99.256;2023-02-11T01:01:16;11.30;;;10.20;;
20954;SDS011;10636;19.390;-99.256;2023-02-11T01:03:45;11.02;;;9.93;;
20954;SDS011;10636;19.390;-99.256;2023-02-11T01:06:15;11.05;;;9.90;;
20954;SDS011;10636;19.390;-99.256;2023-02-11T01:08:44;10.88;;;9.73;;
20954;SDS011;10636;19.390;-99.256;2023-02-11T01:11:13;13.15;;;8.85;;
20954;SDS011;10636;19.390;-99.256;2023-02-11T01:13:44;10.20;;;9.18;;
20954;SDS011;10636;19.390;-99.256;2023-02-11T01:16:13;10.88;;;9.45;;
20954;SDS011;10636;19.390;-99.256;2023-02-11T01:18:41;9.38;;;8.48;;
20954;SDS011;10636;19.390;-99.256;2023-02-11T01:21:10;10.48;;;9.38;;
20954;SDS011;10636;19.390;-99.256;2023-02-11T01:23:41;10.45;;;9.40;;
20954;SDS011;10636;19.390;-99.256;2023-02-11T01:26:09;10.45;;;9.30;;
20954;SDS011;10636;19.390;-99.256;2023-02-11T01:28:38;11.27;;;8.73;;
20954;SDS011;10636;19.390;-99.256;2023-02-11T01:31:06;9.35;;;8.45;;
20954;SDS011;10636;19.390;-99.256;2023-02-11T01:33:35;10.75;;;8.32;;
20954;SDS011;10636;19.390;-99.256;2023-02-11T01:36:04;8.68;;;7.88;;
20954;SDS011;10636;19.390;-99.256;2023-02-11T01:38:33;9.40;;;8.38;;
20954;SDS011;10636;19.390;-99.256;2023-02-11T01:41:04;12.50;;;8.25;;
20954;SDS011;10636;19.390;-99.256;2023-02-11T01:43:36;9.35;;;8.27;;
20954;SDS011;10636;19.390;-99.256;2023-02-11T01:46:16;9.35;;;8.13;;
20954;SDS011;10636;19.390;-99.256;2023-02-11T01:48:53;11.48;;;7.65;;
20954;SDS011;10636;19.390;-99.256;2023-02-11T01:51:26;8.32;;;7.28;;
20954;SDS011;10636;19.390;-99.256;2023-02-11T01:53:59;10.07;;;7.28;;
20954;SDS011;10636;19.390;-99.256;2023-02-11T01:56:48;10.07;;;7.03;;
20954;SDS011;10636;19.390;-99.256;2023-02-11T01:59:37;8.57;;;6.93;;
20954;SDS011;10636;19.390;-99.256;2023-02-11T02:02:11;7.50;;;6.80;;
20954;SDS011;10636;19.390;-99.256;2023-02-11T02:04:45;7.50;;;6.80;;
20954;SDS011;10636;19.390;-99.256;2023-02-11T02:07:21;8.52;;;6.78;;
20954;SDS011;10636;19.390;-99.256;2023-02-11T02:09:58;7.78;;;6.72;;
20954;SDS011;10636;19.390;-99.256;2023-02-11T02:12:32;9.88;;;6.43;;
20954;SDS011;10636;19.390;-99.256;2023-02-11T02:15:21;7.43;;;6.07;;
20954;SDS011;10636;19.390;-99.256;2023-02-11T02:18:01;8.75;;;6.10;;
20954;SDS011;10636;19.390;-99.256;2023-02-11T02:21:09;6.25;;;5.57;;
20954;SDS011;10636;19.390;-99.256;2023-02-11T02:27:02;8.70;;;5.60;;
20954;SDS011;10636;19.390;-99.256;2023-02-11T02:33:15;8.18;;;5.60;;
20954;SDS011;10636;19.390;-99.256;2023-02-11T02:36:03;7.05;;;5.43;;
20954;SDS011;10636;19.390;-99.256;2023-02-11T02:38:36;8.25;;;5.20;;
20954;SDS011;10636;19.390;-99.256;2023-02-11T02:41:10;8.02;;;5.78;;
20954;SDS011;10636;19.390;-99.256;2023-02-11T02:43:44;7.38;;;5.53;;
20954;SDS011;10636;19.390;-99.256;2023-02-11T02:46:16;7.15;;;5.18;;
20954;SDS011;10636;19.390;-99.256;2023-02-11T02:48:47;9.60;;;4.95;;
20954;SDS011;10636;19.390;-99.256;2023-02-11T02:51:30;8.45;;;4.75;;
20954;SDS011;10636;19.390;-99.256;2023-02-11T02:54:23;8.32;;;4.80;;
20954;SDS011;10636;19.390;-99.256;2023-02-11T02:57:05;4.93;;;4.43;;
20954;SDS011;10636;19.390;-99.256;2023-02-11T02:59:49;6.63;;;4.22;;
20954;SDS011;10636;19.390;-99.256;2023-02-11T03:02:30;8.65;;;5.80;;
20954;SDS011;10636;19.390;-99.256;2023-02-11T03:05:05;10.35;;;6.38;;
20954;SDS011;10636;19.390;-99.256;2023-02-11T03:07:40;9.68;;;6.75;;
20954;SDS011;10636;19.390;-99.256;2023-02-11T03:10:13;10.10;;;7.07;;
20954;SDS011;10636;19.390;-99.256;2023-02-11T03:12:46;9.55;;;7.03;;
20954;SDS011;10636;19.390;-99.256;2023-02-11T03:15:16;8.48;;;6.80;;
20954;SDS011;10636;19.390;-99.256;2023-02-11T03:17:47;10.45;;;6.53;;
20954;SDS011;10636;19.390;-99.256;2023-02-11T03:20:21;11.57;;;6.10;;
20954;SDS011;10636;19.390;-99.256;2023-02-11T03:22:52;11.15;;;6.85;;
20954;SDS011;10636;19.390;-99.256;2023-02-11T03:25:25;7.68;;;6.18;;
20954;SDS011;10636;19.390;-99.256;2023-02-11T03:27:57;7.70;;;5.90;;
20954;SDS011;10636;19.390;-99.256;2023-02-11T03:30:32;5.93;;;5.30;;
20954;SDS011;10636;19.390;-99.256;2023-02-11T03:33:06;6.95;;;5.32;;
20954;SDS011;10636;19.390;-99.256;2023-02-11T03:35:43;6.55;;;5.53;;
20954;SDS011;10636;19.390;-99.256;2023-02-11T03:38:18;5.72;;;5.03;;
20954;SDS011;10636;19.390;-99.256;2023-02-11T03:40:49;8.35;;;5.15;;
20954;SDS011;10636;19.390;-99.256;2023-02-11T03:43:21;7.13;;;4.80;;
20954;SDS011;10636;19.390;-99.256;2023-02-11T03:45:52;4.93;;;4.03;;
20954;SDS011;10636;19.390;-99.256;2023-02-11T03:48:24;5.10;;;4.30;;
20954;SDS011;10636;19.390;-99.256;2023-02-11T03:50:58;4.78;;;4.20;;
20954;SDS011;10636;19.390;-99.256;2023-02-11T03:53:31;5.68;;;4.18;;
20954;SDS011;10636;19.390;-99.256;2023-02-11T03:56:01;5.97;;;4.05;;
20954;SDS011;10636;19.390;-99.256;2023-02-11T03:58:33;5.13;;;4.07;;
20954;SDS011;10636;19.390;-99.256;2023-02-11T04:01:02;4.90;;;3.85;;
20954;SDS011;10636;19.390;-99.256;2023-02-11T04:03:33;4.70;;;4.03;;
20954;SDS011;10636;19.390;-99.256;2023-02-11T04:06:03;4.75;;;3.88;;
20954;SDS011;10636;19.390;-99.256;2023-02-11T04:08:32;6.03;;;4.47;;
20954;SDS011;10636;19.390;-99.256;2023-02-11T04:11:01;6.07;;;4.07;;
20954;SDS011;10636;19.390;-99.256;2023-02-11T04:13:30;4.10;;;3.70;;
20954;SDS011;10636;19.390;-99.256;2023-02-11T04:15:58;5.10;;;4.20;;
20954;SDS011;10636;19.390;-99.256;2023-02-11T04:18:27;4.53;;;3.78;;
20954;SDS011;10636;19.390;-99.256;2023-02-11T04:20:55;4.80;;;4.30;;
20954;SDS011;10636;19.390;-99.256;2023-02-11T04:23:25;5.13;;;4.18;;
20954;SDS011;10636;19.390;-99.256;2023-02-11T04:25:54;4.53;;;4.10;;
20954;SDS011;10636;19.390;-99.256;2023-02-11T04:28:22;5.03;;;3.85;;
20954;SDS011;10636;19.390;-99.256;2023-02-11T04:30:54;4.78;;;3.90;;
20954;SDS011;10636;19.390;-99.256;2023-02-11T04:33:23;4.78;;;4.00;;
20954;SDS011;10636;19.390;-99.256;2023-02-11T04:35:51;4.45;;;3.53;;
20954;SDS011;10636;19.390;-99.256;2023-02-11T04:38:20;4.15;;;3.72;;
20954;SDS011;10636;19.390;-99.256;2023-02-11T04:40:50;4.63;;;3.72;;
20954;SDS011;10636;19.390;-99.256;2023-02-11T04:43:19;4.20;;;3.78;;
20954;SDS011;10636;19.390;-99.256;2023-02-11T04:45:48;5.30;;;3.60;;
20954;SDS011;10636;19.390;-99.256;2023-02-11T04:48:16;3.90;;;3.50;;
20954;SDS011;10636;19.390;-99.256;2023-02-11T04:50:45;4.65;;;3.80;;
20954;SDS011;10636;19.390;-99.256;2023-02-11T04:53:13;4.90;;;3.80;;
20954;SDS011;10636;19.390;-99.256;2023-02-11T04:55:42;3.72;;;3.42;;
20954;SDS011;10636;19.390;-99.256;2023-02-11T04:58:12;3.65;;;3.33;;
20954;SDS011;10636;19.390;-99.256;2023-02-11T05:00:41;4.32;;;3.67;;
20954;SDS011;10636;19.390;-99.256;2023-02-11T05:03:10;3.67;;;3.38;;
20954;SDS011;10636;19.390;-99.256;2023-02-11T05:05:39;3.70;;;3.38;;
20954;SDS011;10636;19.390;-99.256;2023-02-11T05:08:08;3.42;;;3.13;;
20954;SDS011;10636;19.390;-99.256;2023-02-11T05:10:37;3.83;;;3.30;;
20954;SDS011;10636;19.390;-99.256;2023-02-11T05:13:06;3.45;;;3.15;;
20954;SDS011;10636;19.390;-99.256;2023-02-11T05:15:36;4.15;;;3.58;;
20954;SDS011;10636;19.390;-99.256;2023-02-11T05:18:05;3.47;;;3.03;;
20954;SDS011;10636;19.390;-99.256;2023-02-11T05:20:33;5.03;;;3.22;;
20954;SDS011;10636;19.390;-99.256;2023-02-11T05:23:04;4.93;;;3.22;;
20954;SDS011;10636;19.390;-99.256;2023-02-11T05:25:33;3.97;;;2.83;;
20954;SDS011;10636;19.390;-99.256;2023-02-11T05:28:01;3.92;;;3.25;;
20954;SDS011;10636;19.390;-99.256;2023-02-11T05:30:31;3.35;;;3.08;;
20954;SDS011;10636;19.390;-99.256;2023-02-11T05:33:01;3.22;;;2.85;;
20954;SDS011;10636;19.390;-99.256;2023-02-11T05:35:30;3.75;;;3.00;;
20954;SDS011;10636;19.390;-99.256;2023-02-11T05:37:58;3.10;;;2.80;;
20954;SDS011;10636;19.390;-99.256;2023-02-11T05:40:27;3.00;;;2.70;;
20954;SDS011;10636;19.390;-99.256;2023-02-11T05:42:56;3.00;;;2.80;;
20954;SDS011;10636;19.390;-99.256;2023-02-11T05:45:24;3.20;;;2.90;;
20954;SDS011;10636;19.390;-99.256;2023-02-11T05:47:53;3.17;;;2.70;;
20954;SDS011;10636;19.390;-99.256;2023-02-11T05:50:25;3.10;;;2.67;;
20954;SDS011;10636;19.390;-99.256;2023-02-11T05:52:54;2.85;;;2.65;;
20954;SDS011;10636;19.390;-99.256;2023-02-11T05:55:22;2.92;;;2.72;;
20954;SDS011;10636;19.390;-99.256;2023-02-11T05:57:51;3.13;;;2.83;;
20954;SDS011;10636;19.390;-99.256;2023-02-11T06:00:20;2.85;;;2.58;;
20954;SDS011;10636;19.390;-99.256;2023-02-11T06:02:48;2.97;;;2.47;;
20954;SDS011;10636;19.390;-99.256;2023-02-11T06:05:17;2.95;;;2.67;;
20954;SDS011;10636;19.390;-99.256;2023-02-11T06:07:47;2.85;;;2.65;;
20954;SDS011;10636;19.390;-99.256;2023-02-11T06:10:16;3.00;;;2.50;;
20954;SDS011;10636;19.390;-99.256;2023-02-11T06:12:46;3.40;;;2.50;;
20954;SDS011;10636;19.390;-99.256;2023-02-11T06:15:14;2.90;;;2.70;;
20954;SDS011;10636;19.390;-99.256;2023-02-11T06:17:43;2.92;;;2.60;;
20954;SDS011;10636;19.390;-99.256;2023-02-11T06:20:12;2.90;;;2.15;;
20954;SDS011;10636;19.390;-99.256;2023-02-11T06:22:40;2.53;;;2.33;;
20954;SDS011;10636;19.390;-99.256;2023-02-11T06:25:10;3.08;;;2.67;;
20954;SDS011;10636;19.390;-99.256;2023-02-11T06:27:39;3.08;;;2.78;;
20954;SDS011;10636;19.390;-99.256;2023-02-11T06:30:08;2.67;;;2.40;;
20954;SDS011;10636;19.390;-99.256;2023-02-11T06:32:38;2.78;;;2.47;;
20954;SDS011;10636;19.390;-99.256;2023-02-11T06:35:06;3.10;;;2.90;;
20954;SDS011;10636;19.390;-99.256;2023-02-11T06:37:35;2.80;;;2.60;;
20954;SDS011;10636;19.390;-99.256;2023-02-11T06:40:04;3.25;;;2.72;;
20954;SDS011;10636;19.390;-99.256;2023-02-11T06:42:34;2.55;;;2.35;;
20954;SDS011;10636;19.390;-99.256;2023-02-11T06:45:04;3.10;;;2.83;;
20954;SDS011;10636;19.390;-99.256;2023-02-11T06:47:33;3.03;;;2.60;;
20954;SDS011;10636;19.390;-99.256;2023-02-11T06:50:02;2.88;;;2.53;;
20954;SDS011;10636;19.390;-99.256;2023-02-11T06:52:32;2.92;;;2.72;;
20954;SDS011;10636;19.390;-99.256;2023-02-11T06:55:01;3.00;;;2.80;;
20954;SDS011;10636;19.390;-99.256;2023-02-11T06:57:29;4.13;;;2.80;;
20954;SDS011;10636;19.390;-99.256;2023-02-11T07:00:00;2.75;;;2.50;;
20954;SDS011;10636;19.390;-99.256;2023-02-11T07:02:28;3.05;;;2.63;;
20954;SDS011;10636;19.390;-99.256;2023-02-11T07:04:57;3.47;;;2.60;;
20954;SDS011;10636;19.390;-99.256;2023-02-11T07:07:26;2.70;;;2.50;;
20954;SDS011;10636;19.390;-99.256;2023-02-11T07:09:56;2.70;;;2.50;;
20954;SDS011;10636;19.390;-99.256;2023-02-11T07:12:25;2.80;;;2.60;;
20954;SDS011;10636;19.390;-99.256;2023-02-11T07:14:56;2.83;;;2.63;;
20954;SDS011;10636;19.390;-99.256;2023-02-11T07:17:26;3.00;;;2.72;;
20954;SDS011;10636;19.390;-99.256;2023-02-11T07:19:55;3.05;;;2.72;;
20954;SDS011;10636;19.390;-99.256;2023-02-11T07:22:23;3.00;;;2.72;;
20954;SDS011;10636;19.390;-99.256;2023-02-11T07:24:52;2.53;;;2.33;;
20954;SDS011;10636;19.390;-99.256;2023-02-11T07:27:20;2.97;;;2.78;;
20954;SDS011;10636;19.390;-99.256;2023-02-11T07:29:49;2.90;;;2.70;;
20954;SDS011;10636;19.390;-99.256;2023-02-11T07:32:17;2.80;;;2.60;;
20954;SDS011;10636;19.390;-99.256;2023-02-11T07:34:48;3.10;;;2.90;;
20954;SDS011;10636;19.390;-99.256;2023-02-11T07:37:16;3.22;;;2.90;;
20954;SDS011;10636;19.390;-99.256;2023-02-11T07:39:45;3.13;;;2.83;;
20954;SDS011;10636;19.390;-99.256;2023-02-11T07:42:14;3.05;;;2.75;;
20954;SDS011;10636;19.390;-99.256;2023-02-11T07:44:42;3.47;;;2.70;;
20954;SDS011;10636;19.390;-99.256;2023-02-11T07:47:11;3.13;;;2.83;;
20954;SDS011;10636;19.390;-99.256;2023-02-11T07:49:39;3.40;;;2.63;;
20954;SDS011;10636;19.390;-99.256;2023-02-11T07:52:09;3.30;;;3.00;;
20954;SDS011;10636;19.390;-99.256;2023-02-11T07:54:38;3.50;;;3.20;;
20954;SDS011;10636;19.390;-99.256;2023-02-11T07:57:07;3.42;;;3.13;;
20954;SDS011;10636;19.390;-99.256;2023-02-11T07:59:35;3.60;;;3.25;;
20954;SDS011;10636;19.390;-99.256;2023-02-11T08:02:04;3.67;;;3.38;;
20954;SDS011;10636;19.390;-99.256;2023-02-11T08:04:32;4.43;;;3.40;;
20954;SDS011;10636;19.390;-99.256;2023-02-11T08:07:01;4.40;;;4.00;;
20954;SDS011;10636;19.390;-99.256;2023-02-11T08:09:33;4.70;;;3.53;;
20954;SDS011;10636;19.390;-99.256;2023-02-11T08:12:03;4.57;;;3.40;;
20954;SDS011;10636;19.390;-99.256;2023-02-11T08:14:32;4.72;;;4.10;;
20954;SDS011;10636;19.390;-99.256;2023-02-11T08:17:01;4.55;;;4.15;;
20954;SDS011;10636;19.390;-99.256;2023-02-11T08:19:29;4.50;;;4.10;;
20954;SDS011;10636;19.390;-99.256;2023-02-11T08:21:58;4.65;;;3.97;;
20954;SDS011;10636;19.390;-99.256;2023-02-11T08:24:26;4.80;;;4.40;;
20954;SDS011;10636;19.390;-99.256;2023-02-11T08:26:57;4.68;;;4.28;;
20954;SDS011;10636;19.390;-99.256;2023-02-11T08:29:25;5.57;;;5.07;;
20954;SDS011;10636;19.390;-99.256;2023-02-11T08:31:54;5.13;;;4.63;;
20954;SDS011;10636;19.390;-99.256;2023-02-11T08:34:22;5.72;;;5.22;;
20954;SDS011;10636;19.390;-99.256;2023-02-11T08:36:51;5.78;;;4.90;;
20954;SDS011;10636;19.390;-99.256;2023-02-11T08:39:20;5.70;;;4.90;;
20954;SDS011;10636;19.390;-99.256;2023-02-11T08:41:50;5.63;;;5.13;;
20954;SDS011;10636;19.390;-99.256;2023-02-11T08:44:22;5.50;;;5.03;;
20954;SDS011;10636;19.390;-99.256;2023-02-11T08:46:51;6.18;;;5.57;;
20954;SDS011;10636;19.390;-99.256;2023-02-11T08:49:20;5.80;;;5.30;;
20954;SDS011;10636;19.390;-99.256;2023-02-11T08:51:49;6.68;;;5.97;;
20954;SDS011;10636;19.390;-99.256;2023-02-11T08:54:18;5.60;;;5.10;;
20954;SDS011;10636;19.390;-99.256;2023-02-11T08:56:49;6.53;;;5.40;;
20954;SDS011;10636;19.390;-99.256;2023-02-11T08:59:18;6.28;;;5.68;;
20954;SDS011;10636;19.390;-99.256;2023-02-11T09:01:48;6.47;;;5.88;;
20954;SDS011;10636;19.390;-99.256;2023-02-11T09:04:17;6.50;;;5.90;;
20954;SDS011;10636;19.390;-99.256;2023-02-11T09:06:45;6.80;;;6.20;;
20954;SDS011;10636;19.390;-99.256;2023-02-11T09:09:14;6.95;;;6.25;;
20954;SDS011;10636;19.390;-99.256;2023-02-11T09:11:44;7.15;;;6.55;;
20954;SDS011;10636;19.390;-99.256;2023-02-11T09:14:16;6.75;;;6.15;;
20954;SDS011;10636;19.390;-99.256;2023-02-11T09:16:46;7.03;;;6.40;;
20954;SDS011;10636;19.390;-99.256;2023-02-11T09:19:17;7.05;;;6.35;;
20954;SDS011;10636;19.390;-99.256;2023-02-11T09:21:47;7.15;;;6.55;;
20954;SDS011;10636;19.390;-99.256;2023-02-11T09:24:16;6.82;;;6.20;;
20954;SDS011;10636;19.390;-99.256;2023-02-11T09:26:44;7.18;;;6.47;;
20954;SDS011;10636;19.390;-99.256;2023-02-11T09:29:14;8.05;;;7.07;;
20954;SDS011;10636;19.390;-99.256;2023-02-11T09:31:42;6.50;;;5.90;;
20954;SDS011;10636;19.390;-99.256;2023-02-11T09:34:12;6.97;;;6.35;;
20954;SDS011;10636;19.390;-99.256;2023-02-11T09:36:41;7.18;;;6.47;;
20954;SDS011;10636;19.390;-99.256;2023-02-11T09:39:11;7.43;;;6.82;;
20954;SDS011;10636;19.390;-99.256;2023-02-11T09:41:45;7.40;;;6.70;;
20954;SDS011;10636;19.390;-99.256;2023-02-11T09:44:35;7.30;;;6.60;;
20954;SDS011;10636;19.390;-99.256;2023-02-11T09:47:05;7.60;;;6.90;;
20954;SDS011;10636;19.390;-99.256;2023-02-11T09:49:44;8.10;;;7.32;;
20954;SDS011;10636;19.390;-99.256;2023-02-11T09:52:18;8.35;;;7.57;;
20954;SDS011;10636;19.390;-99.256;2023-02-11T09:54:56;8.23;;;7.45;;
20954;SDS011;10636;19.390;-99.256;2023-02-11T09:57:28;7.82;;;7.03;;
20954;SDS011;10636;19.390;-99.256;2023-02-11T10:00:00;7.60;;;6.80;;
20954;SDS011;10636;19.390;-99.256;2023-02-11T10:02:30;8.68;;;7.80;;
20954;SDS011;10636;19.390;-99.256;2023-02-11T10:08:07;8.30;;;7.50;;
20954;SDS011;10636;19.390;-99.256;2023-02-11T10:10:44;8.20;;;7.50;;
20954;SDS011;10636;19.390;-99.256;2023-02-11T10:16:15;8.63;;;7.82;;
20954;SDS011;10636;19.390;-99.256;2023-02-11T10:18:56;8.20;;;7.40;;
20954;SDS011;10636;19.390;-99.256;2023-02-11T10:21:47;8.43;;;7.72;;
20954;SDS011;10636;19.390;-99.256;2023-02-11T10:24:23;8.85;;;8.05;;
20954;SDS011;10636;19.390;-99.256;2023-02-11T10:26:52;8.98;;;8.07;;
20954;SDS011;10636;19.390;-99.256;2023-02-11T10:29:25;8.88;;;8.07;;
20954;SDS011;10636;19.390;-99.256;2023-02-11T10:32:03;8.70;;;8.00;;
20954;SDS011;10636;19.390;-99.256;2023-02-11T10:34:38;8.63;;;7.90;;
20954;SDS011;10636;19.390;-99.256;2023-02-11T10:37:10;8.93;;;7.35;;
20954;SDS011;10636;19.390;-99.256;2023-02-11T10:39:40;8.57;;;7.78;;
20954;SDS011;10636;19.390;-99.256;2023-02-11T10:42:10;8.32;;;7.53;;
20954;SDS011;10636;19.390;-99.256;2023-02-11T10:44:41;8.50;;;7.65;;
20954;SDS011;10636;19.390;-99.256;2023-02-11T10:47:20;8.95;;;8.13;;
20954;SDS011;10636;19.390;-99.256;2023-02-11T10:49:51;8.05;;;7.45;;
20954;SDS011;10636;19.390;-99.256;2023-02-11T10:52:22;9.07;;;8.00;;
20954;SDS011;10636;19.390;-99.256;2023-02-11T10:55:02;7.85;;;7.18;;
20954;SDS011;10636;19.390;-99.256;2023-02-11T10:57:41;6.78;;;6.20;;
20954;SDS011;10636;19.390;-99.256;2023-02-11T11:00:22;7.43;;;6.82;;
20954;SDS011;10636;19.390;-99.256;2023-02-11T11:03:01;7.25;;;6.53;;
20954;SDS011;10636;19.390;-99.256;2023-02-11T11:05:31;6.68;;;6.07;;
20954;SDS011;10636;19.390;-99.256;2023-02-11T11:08:05;6.97;;;6.20;;
20954;SDS011;10636;19.390;-99.256;2023-02-11T11:10:36;6.95;;;6.32;;
20954;SDS011;10636;19.390;-99.256;2023-02-11T11:16:07;6.80;;;5.82;;
20954;SDS011;10636;19.390;-99.256;2023-02-11T11:18:42;6.80;;;6.20;;
20954;SDS011;10636;19.390;-99.256;2023-02-11T11:21:12;6.38;;;5.88;;
20954;SDS011;10636;19.390;-99.256;2023-02-11T11:23:47;6.00;;;5.40;;
20954;SDS011;10636;19.390;-99.256;2023-02-11T11:26:19;5.93;;;5.43;;
20954;SDS011;10636;19.390;-99.256;2023-02-11T11:28:57;5.47;;;5.05;;
20954;SDS011;10636;19.390;-99.256;2023-02-11T11:31:29;5.85;;;5.35;;
20954;SDS011;10636;19.390;-99.256;2023-02-11T11:34:02;5.70;;;5.18;;
20954;SDS011;10636;19.390;-99.256;2023-02-11T11:36:48;5.80;;;5.20;;
20954;SDS011;10636;19.390;-99.256;2023-02-11T11:39:19;5.63;;;5.07;;
20954;SDS011;10636;19.390;-99.256;2023-02-11T11:41:51;5.35;;;4.85;;
20954;SDS011;10636;19.390;-99.256;2023-02-11T11:44:26;5.57;;;5.07;;
20954;SDS011;10636;19.390;-99.256;2023-02-11T11:47:18;5.63;;;5.13;;
20954;SDS011;10636;19.390;-99.256;2023-02-11T11:49:56;4.80;;;4.40;;
20954;SDS011;10636;19.390;-99.256;2023-02-11T11:52:48;5.53;;;5.03;;
20954;SDS011;10636;19.390;-99.256;2023-02-11T11:55:23;6.40;;;4.90;;
20954;SDS011;10636;19.390;-99.256;2023-02-11T11:57:54;4.97;;;4.57;;
20954;SDS011;10636;19.390;-99.256;2023-02-11T12:00:35;4.85;;;4.45;;
20954;SDS011;10636;19.390;-99.256;2023-02-11T12:03:21;4.95;;;4.47;;
20954;SDS011;10636;19.390;-99.256;2023-02-11T12:06:08;4.75;;;4.30;;
20954;SDS011;10636;19.390;-99.256;2023-02-11T12:08:51;4.75;;;4.35;;
20954;SDS011;10636;19.390;-99.256;2023-02-11T12:11:35;4.82;;;4.20;;
20954;SDS011;10636;19.390;-99.256;2023-02-11T12:14:12;4.93;;;4.53;;
20954;SDS011;10636;19.390;-99.256;2023-02-11T12:16:53;4.40;;;4.00;;
20954;SDS011;10636;19.390;-99.256;2023-02-11T12:19:36;4.95;;;4.40;;
20954;SDS011;10636;19.390;-99.256;2023-02-11T12:22:25;4.47;;;4.10;;
20954;SDS011;10636;19.390;-99.256;2023-02-11T12:25:13;4.63;;;4.22;;
20954;SDS011;10636;19.390;-99.256;2023-02-11T12:27:58;4.78;;;4.07;;
20954;SDS011;10636;19.390;-99.256;2023-02-11T12:33:38;4.60;;;4.20;;
20954;SDS011;10636;19.390;-99.256;2023-02-11T12:36:28;4.32;;;3.92;;
20954;SDS011;10636;19.390;-99.256;2023-02-11T12:39:12;5.28;;;4.28;;
20954;SDS011;10636;19.390;-99.256;2023-02-11T12:41:57;4.40;;;4.00;;
20954;SDS011;10636;19.390;-99.256;2023-02-11T12:44:57;5.78;;;4.20;;
20954;SDS011;10636;19.390;-99.256;2023-02-11T12:47:39;7.00;;;4.55;;
20954;SDS011;10636;19.390;-99.256;2023-02-11T12:50:16;6.32;;;4.47;;
20954;SDS011;10636;19.390;-99.256;2023-02-11T12:52:57;5.32;;;4.13;;
20954;SDS011;10636;19.390;-99.256;2023-02-11T12:55:47;4.78;;;4.38;;
20954;SDS011;10636;19.390;-99.256;2023-02-11T12:58:21;5.40;;;4.45;;
20954;SDS011;10636;19.390;-99.256;2023-02-11T13:00:57;5.63;;;5.13;;
20954;SDS011;10636;19.390;-99.256;2023-02-11T13:03:34;5.43;;;4.65;;
20954;SDS011;10636;19.390;-99.256;2023-02-11T13:06:08;5.78;;;4.63;;
20954;SDS011;10636;19.390;-99.256;2023-02-11T13:08:41;4.97;;;4.40;;
20954;SDS011;10636;19.390;-99.256;2023-02-11T13:11:14;5.40;;;4.70;;
20954;SDS011;10636;19.390;-99.256;2023-02-11T13:13:46;4.63;;;3.90;;
20954;SDS011;10636;19.390;-99.256;2023-02-11T13:16:22;5.13;;;4.10;;
20954;SDS011;10636;19.390;-99.256;2023-02-11T13:19:00;5.15;;;4.25;;
20954;SDS011;10636;19.390;-99.256;2023-02-11T13:21:50;4.55;;;4.15;;
20954;SDS011;10636;19.390;-99.256;2023-02-11T13:24:28;4.72;;;4.35;;
20954;SDS011;10636;19.390;-99.256;2023-02-11T13:27:06;4.70;;;4.30;;
20954;SDS011;10636;19.390;-99.256;2023-02-11T13:29:41;4.80;;;4.22;;
20954;SDS011;10636;19.390;-99.256;2023-02-11T13:32:42;7.70;;;4.55;;
20954;SDS011;10636;19.390;-99.256;2023-02-11T13:35:33;5.68;;;5.07;;
20954;SDS011;10636;19.390;-99.256;2023-02-11T13:38:03;6.68;;;5.22;;
20954;SDS011;10636;19.390;-99.256;2023-02-11T13:40:44;6.95;;;5.97;;
20954;SDS011;10636;19.390;-99.256;2023-02-11T13:43:27;7.32;;;6.50;;
20954;SDS011;10636;19.390;-99.256;2023-02-11T13:45:57;7.38;;;6.68;;
20954;SDS011;10636;19.390;-99.256;2023-02-11T13:48:30;7.47;;;6.78;;
20954;SDS011;10636;19.390;-99.256;2023-02-11T13:51:01;7.95;;;7.15;;
20954;SDS011;10636;19.390;-99.256;2023-02-11T13:53:43;7.90;;;7.20;;
20954;SDS011;10636;19.390;-99.256;2023-02-11T13:56:22;10.52;;;7.75;;
20954;SDS011;10636;19.390;-99.256;2023-02-11T13:58:58;8.52;;;7.50;;
20954;SDS011;10636;19.390;-99.256;2023-02-11T14:01:41;9.73;;;7.65;;
20954;SDS011;10636;19.390;-99.256;2023-02-11T14:04:39;9.00;;;8.13;;
20954;SDS011;10636;19.390;-99.256;2023-02-11T14:08:13;8.73;;;7.70;;
20954;SDS011;10636;19.390;-99.256;2023-02-11T14:11:01;9.15;;;8.20;;
20954;SDS011;10636;19.390;-99.256;2023-02-11T14:13:33;9.68;;;8.68;;
20954;SDS011;10636;19.390;-99.256;2023-02-11T14:16:05;10.35;;;8.50;;
20954;SDS011;10636;19.390;-99.256;2023-02-11T14:18:43;9.38;;;8.13;;
20954;SDS011;10636;19.390;-99.256;2023-02-11T14:21:32;10.25;;;8.57;;
20954;SDS011;10636;19.390;-99.256;2023-02-11T14:27:17;13.52;;;9.18;;
20954;SDS011;10636;19.390;-99.256;2023-02-11T14:29:57;10.35;;;9.13;;
20954;SDS011;10636;19.390;-99.256;2023-02-11T14:32:46;11.40;;;9.00;;
20954;SDS011;10636;19.390;-99.256;2023-02-11T14:35:22;11.57;;;9.07;;
20954;SDS011;10636;19.390;-99.256;2023-02-11T14:38:01;9.40;;;8.40;;
20954;SDS011;10636;19.390;-99.256;2023-02-11T14:40:39;9.45;;;8.18;;
20954;SDS011;10636;19.390;-99.256;2023-02-11T14:43:14;10.77;;;8.98;;
20954;SDS011;10636;19.390;-99.256;2023-02-11T14:45:49;10.35;;;8.10;;
20954;SDS011;10636;19.390;-99.256;2023-02-11T14:48:20;10.32;;;8.85;;
20954;SDS011;10636;19.390;-99.256;2023-02-11T14:50:57;13.15;;;8.40;;
20954;SDS011;10636;19.390;-99.256;2023-02-11T14:53:31;8.85;;;7.95;;
20954;SDS011;10636;19.390;-99.256;2023-02-11T14:56:01;9.93;;;7.82;;
20954;SDS011;10636;19.390;-99.256;2023-02-11T14:58:30;9.57;;;8.40;;
20954;SDS011;10636;19.390;-99.256;2023-02-11T15:01:00;9.60;;;8.70;;
20954;SDS011;10636;19.390;-99.256;2023-02-11T15:03:32;10.38;;;8.70;;
20954;SDS011;10636;19.390;-99.256;2023-02-11T15:06:03;11.60;;;8.30;;
20954;SDS011;10636;19.390;-99.256;2023-02-11T15:08:46;9.27;;;8.38;;
20954;SDS011;10636;19.390;-99.256;2023-02-11T15:11:18;8.63;;;7.65;;
20954;SDS011;10636;19.390;-99.256;2023-02-11T15:13:48;11.93;;;9.30;;
20954;SDS011;10636;19.390;-99.256;2023-02-11T15:16:19;12.25;;;8.60;;